This is the latest recevied weather packets stored in our database for station/object IN3MWE-10. If no packets are shown the sender has not sent any weather packets the latest 10 day(s).
| Time | Temp. | Humidity | Pressure | Rain* | Wind** | Luminosity | Snow |
|---|---|---|---|---|---|---|---|
| 1787423723 | 21.67° C | 61% | 979.5 hPa | - | - | - | - |
| 1787422823 | 21.67° C | 62% | 979.2 hPa | - | - | - | - |
| 1787421923 | 22.22° C | 64% | 979.1 hPa | - | - | - | - |
| 1787421023 | 22.78° C | 64% | 978.9 hPa | - | - | - | - |
| 1787420122 | 22.78° C | 62% | 978.7 hPa | - | - | - | - |
| 1787419222 | 23.33° C | 60% | 978.4 hPa | - | - | - | - |
| 1787418322 | 23.89° C | 60% | 978.2 hPa | - | - | - | - |
| 1787417422 | 23.89° C | 63% | 978 hPa | - | - | - | - |
| 1787416522 | 24.44° C | 62% | 977.9 hPa | - | - | - | - |
| 1787415622 | 26.11° C | 52% | 977.8 hPa | - | - | - | - |
| 1787414722 | 31.11° C | 41% | 977.7 hPa | - | - | - | - |
| 1787413821 | 25° C | 57% | 977.7 hPa | - | - | - | - |
| 1787412921 | 25.56° C | 55% | 977.7 hPa | - | - | - | - |
| 1787412021 | 27.78° C | 46% | 977.6 hPa | - | - | - | - |
| 1787411121 | 31.67° C | 34% | 977.5 hPa | - | - | - | - |
| 1787410221 | 30° C | 35% | 977.5 hPa | - | - | - | - |
| 1787409321 | 29.44° C | 33% | 977.6 hPa | - | - | - | - |
| 1787408421 | 34.44° C | 21% | 977.6 hPa | - | - | - | - |
| 1787407521 | 34.44° C | 20% | 977.5 hPa | - | - | - | - |
| 1787406620 | 35.56° C | 20% | 977.6 hPa | - | - | - | - |
| 1787405720 | 35.56° C | 22% | 977.7 hPa | - | - | - | - |
| 1787404820 | 36.11° C | 23% | 977.7 hPa | - | - | - | - |
| 1787403920 | 35° C | 26% | 977.8 hPa | - | - | - | - |
| 1787403020 | 38.89° C | 22% | 977.9 hPa | - | - | - | - |
| 1787402120 | 36.67° C | 24% | 977.9 hPa | - | - | - | - |
* Rain since midnight (hover to see other rain measurements)
** Current wind speed in m/s (hover to see current wind gust speed)